Startpagina
METAR-TAF:

METAR-TAF

Vliegvelden :

Sialkot, Pakistan

breedte: 32-32N, lengte: 74-22E, hoogte: 255 m

Actueel weer

Dit bericht is 1 uur en het 2 minuten geleden gemaakt, om 12:00 UTC
Wind 5 kt uit het zuidoosten
Temperatuur 33°C
Vochtigheid 56%
Druk 998 hPa
Zicht: 4000 m
Verspreide wolken op 4000 ft
rook

METAR: OPST 171200Z 13005KT 4000 FU SCT040 33/23 Q0998 NOSIG RH56

Tijdstip: 18:02 (13:02 UTC)


TAF: ontbreekt

Waarnemingen en weersverwachtingen van meer dan 4000 vliegvelden (METAR en TAF).

De beschikbare stations zijn de gele en rode punten op de kaart.

Ga met uw muis naar het station om de naam te zien.

Klik dan om waarnemingen en weersverwachtingen te zien.

kaart wijzigen: klik op de groene knoppen met een zwart kruis om in te zoomen, op de groene knop met een streepje om uit te zoomen of op de groene pijlen voor aangrenzende kaarten.


METAR-TAF: